sensor_id;sensor_type;location;lat;lon;timestamp;temperature;humidity
25582;DHT22;13462;50.764;4.332;2024-01-30T00:01:37;11.20;99.90
25582;DHT22;13462;50.764;4.332;2024-01-30T00:04:03;11.30;99.90
25582;DHT22;13462;50.764;4.332;2024-01-30T00:06:28;11.30;99.90
25582;DHT22;13462;50.764;4.332;2024-01-30T00:08:54;11.30;99.90
25582;DHT22;13462;50.764;4.332;2024-01-30T00:11:20;11.30;99.90
25582;DHT22;13462;50.764;4.332;2024-01-30T00:13:46;11.30;99.90
25582;DHT22;13462;50.764;4.332;2024-01-30T00:16:22;11.40;99.90
25582;DHT22;13462;50.764;4.332;2024-01-30T00:18:48;11.40;99.90
25582;DHT22;13462;50.764;4.332;2024-01-30T00:21:13;11.40;99.90
25582;DHT22;13462;50.764;4.332;2024-01-30T00:23:39;11.50;99.90
25582;DHT22;13462;50.764;4.332;2024-01-30T00:26:05;11.40;99.90
25582;DHT22;13462;50.764;4.332;2024-01-30T00:28:31;11.50;99.90
25582;DHT22;13462;50.764;4.332;2024-01-30T00:30:57;11.50;99.90
25582;DHT22;13462;50.764;4.332;2024-01-30T00:33:22;11.60;99.90
25582;DHT22;13462;50.764;4.332;2024-01-30T00:35:48;11.60;99.90
25582;DHT22;13462;50.764;4.332;2024-01-30T00:38:13;11.50;99.90
25582;DHT22;13462;50.764;4.332;2024-01-30T00:40:39;11.60;99.90
25582;DHT22;13462;50.764;4.332;2024-01-30T00:43:04;11.60;99.90
25582;DHT22;13462;50.764;4.332;2024-01-30T00:45:31;11.50;99.90
25582;DHT22;13462;50.764;4.332;2024-01-30T00:47:56;11.50;99.90
25582;DHT22;13462;50.764;4.332;2024-01-30T00:50:22;11.60;99.90
25582;DHT22;13462;50.764;4.332;2024-01-30T00:52:48;11.60;99.90
25582;DHT22;13462;50.764;4.332;2024-01-30T00:55:13;11.50;99.90
25582;DHT22;13462;50.764;4.332;2024-01-30T00:57:39;11.50;99.90
25582;DHT22;13462;50.764;4.332;2024-01-30T01:00:06;11.50;99.90
25582;DHT22;13462;50.764;4.332;2024-01-30T01:02:37;11.60;99.90
25582;DHT22;13462;50.764;4.332;2024-01-30T01:05:03;11.50;99.90
25582;DHT22;13462;50.764;4.332;2024-01-30T01:07:28;11.50;99.90
25582;DHT22;13462;50.764;4.332;2024-01-30T01:09:54;11.60;99.90
25582;DHT22;13462;50.764;4.332;2024-01-30T01:12:19;11.60;99.90
25582;DHT22;13462;50.764;4.332;2024-01-30T01:14:45;11.60;99.90
25582;DHT22;13462;50.764;4.332;2024-01-30T01:17:11;11.60;99.90
25582;DHT22;13462;50.764;4.332;2024-01-30T01:19:37;11.70;99.90
25582;DHT22;13462;50.764;4.332;2024-01-30T01:22:03;11.70;99.90
25582;DHT22;13462;50.764;4.332;2024-01-30T01:24:31;11.80;99.90
25582;DHT22;13462;50.764;4.332;2024-01-30T01:26:57;11.80;99.90
25582;DHT22;13462;50.764;4.332;2024-01-30T01:29:23;11.80;99.90
25582;DHT22;13462;50.764;4.332;2024-01-30T01:31:56;11.80;99.90
25582;DHT22;13462;50.764;4.332;2024-01-30T01:34:22;11.80;99.90
25582;DHT22;13462;50.764;4.332;2024-01-30T01:36:51;11.80;99.90
25582;DHT22;13462;50.764;4.332;2024-01-30T01:39:17;11.90;99.90
25582;DHT22;13462;50.764;4.332;2024-01-30T01:41:43;11.80;99.90
25582;DHT22;13462;50.764;4.332;2024-01-30T01:44:09;11.90;99.90
25582;DHT22;13462;50.764;4.332;2024-01-30T01:46:35;11.90;99.90
25582;DHT22;13462;50.764;4.332;2024-01-30T01:49:02;11.90;99.90
25582;DHT22;13462;50.764;4.332;2024-01-30T01:51:30;12.00;99.90
25582;DHT22;13462;50.764;4.332;2024-01-30T01:53:59;11.90;99.90
25582;DHT22;13462;50.764;4.332;2024-01-30T01:56:27;11.90;99.90
25582;DHT22;13462;50.764;4.332;2024-01-30T01:58:55;11.90;99.90
25582;DHT22;13462;50.764;4.332;2024-01-30T02:01:21;11.80;99.90
25582;DHT22;13462;50.764;4.332;2024-01-30T02:03:47;11.80;99.90
25582;DHT22;13462;50.764;4.332;2024-01-30T02:06:14;11.90;99.90
25582;DHT22;13462;50.764;4.332;2024-01-30T02:08:40;11.90;99.90
25582;DHT22;13462;50.764;4.332;2024-01-30T02:11:06;11.90;99.90
25582;DHT22;13462;50.764;4.332;2024-01-30T02:13:32;11.90;99.90
25582;DHT22;13462;50.764;4.332;2024-01-30T02:15:57;12.00;99.90
25582;DHT22;13462;50.764;4.332;2024-01-30T02:18:23;12.00;99.90
25582;DHT22;13462;50.764;4.332;2024-01-30T02:20:50;12.00;99.90
25582;DHT22;13462;50.764;4.332;2024-01-30T02:23:19;11.90;99.90
25582;DHT22;13462;50.764;4.332;2024-01-30T02:25:45;11.80;99.90
25582;DHT22;13462;50.764;4.332;2024-01-30T02:28:14;11.90;99.90
25582;DHT22;13462;50.764;4.332;2024-01-30T02:30:42;12.00;99.90
25582;DHT22;13462;50.764;4.332;2024-01-30T02:33:08;12.00;99.90
25582;DHT22;13462;50.764;4.332;2024-01-30T02:35:33;12.00;99.90
25582;DHT22;13462;50.764;4.332;2024-01-30T02:37:59;11.90;99.90
25582;DHT22;13462;50.764;4.332;2024-01-30T02:40:25;11.90;99.90
25582;DHT22;13462;50.764;4.332;2024-01-30T02:42:51;11.90;99.90
25582;DHT22;13462;50.764;4.332;2024-01-30T02:45:16;12.00;99.90
25582;DHT22;13462;50.764;4.332;2024-01-30T02:47:42;12.00;99.90
25582;DHT22;13462;50.764;4.332;2024-01-30T02:50:08;12.10;99.90
25582;DHT22;13462;50.764;4.332;2024-01-30T02:52:34;12.10;99.90
25582;DHT22;13462;50.764;4.332;2024-01-30T02:55:00;12.10;99.90
25582;DHT22;13462;50.764;4.332;2024-01-30T02:57:25;12.00;99.90
25582;DHT22;13462;50.764;4.332;2024-01-30T02:59:51;12.00;99.90
25582;DHT22;13462;50.764;4.332;2024-01-30T03:02:17;11.90;99.90
25582;DHT22;13462;50.764;4.332;2024-01-30T03:04:42;11.80;99.90
25582;DHT22;13462;50.764;4.332;2024-01-30T03:07:08;11.90;99.90
25582;DHT22;13462;50.764;4.332;2024-01-30T03:09:34;11.90;99.90
25582;DHT22;13462;50.764;4.332;2024-01-30T03:12:00;11.90;99.90
25582;DHT22;13462;50.764;4.332;2024-01-30T03:14:26;11.90;99.90
25582;DHT22;13462;50.764;4.332;2024-01-30T03:16:51;11.90;99.90
25582;DHT22;13462;50.764;4.332;2024-01-30T03:19:17;11.90;99.90
25582;DHT22;13462;50.764;4.332;2024-01-30T03:21:44;12.00;99.90
25582;DHT22;13462;50.764;4.332;2024-01-30T03:24:09;12.00;99.90
25582;DHT22;13462;50.764;4.332;2024-01-30T03:26:35;12.10;99.90
25582;DHT22;13462;50.764;4.332;2024-01-30T03:29:01;12.00;99.90
25582;DHT22;13462;50.764;4.332;2024-01-30T03:31:27;12.10;99.90
25582;DHT22;13462;50.764;4.332;2024-01-30T03:33:52;12.10;99.90
25582;DHT22;13462;50.764;4.332;2024-01-30T03:36:18;12.00;99.90
25582;DHT22;13462;50.764;4.332;2024-01-30T03:38:43;12.10;99.90
25582;DHT22;13462;50.764;4.332;2024-01-30T03:41:09;12.00;99.90
25582;DHT22;13462;50.764;4.332;2024-01-30T03:43:35;12.00;99.90
25582;DHT22;13462;50.764;4.332;2024-01-30T03:46:02;12.00;99.90
25582;DHT22;13462;50.764;4.332;2024-01-30T03:48:28;11.90;99.90
25582;DHT22;13462;50.764;4.332;2024-01-30T03:50:54;12.00;99.90
25582;DHT22;13462;50.764;4.332;2024-01-30T03:53:19;12.00;99.90
25582;DHT22;13462;50.764;4.332;2024-01-30T03:55:45;12.00;99.90
25582;DHT22;13462;50.764;4.332;2024-01-30T03:58:10;12.00;99.90
25582;DHT22;13462;50.764;4.332;2024-01-30T04:00:36;11.90;99.90
25582;DHT22;13462;50.764;4.332;2024-01-30T04:03:02;11.80;99.90
25582;DHT22;13462;50.764;4.332;2024-01-30T04:05:27;11.80;99.90
25582;DHT22;13462;50.764;4.332;2024-01-30T04:07:53;11.90;99.90
25582;DHT22;13462;50.764;4.332;2024-01-30T04:10:19;11.80;99.90
25582;DHT22;13462;50.764;4.332;2024-01-30T04:12:44;11.80;99.90
25582;DHT22;13462;50.764;4.332;2024-01-30T04:15:10;11.80;99.90
25582;DHT22;13462;50.764;4.332;2024-01-30T04:17:36;11.80;99.90
25582;DHT22;13462;50.764;4.332;2024-01-30T04:20:01;11.80;99.90
25582;DHT22;13462;50.764;4.332;2024-01-30T04:22:27;11.80;99.90
25582;DHT22;13462;50.764;4.332;2024-01-30T04:24:53;11.80;99.90
25582;DHT22;13462;50.764;4.332;2024-01-30T04:27:18;11.80;99.90
25582;DHT22;13462;50.764;4.332;2024-01-30T04:29:44;11.90;99.90
25582;DHT22;13462;50.764;4.332;2024-01-30T04:32:10;11.80;99.90
25582;DHT22;13462;50.764;4.332;2024-01-30T04:34:36;11.80;99.90
25582;DHT22;13462;50.764;4.332;2024-01-30T04:37:02;11.80;99.90
25582;DHT22;13462;50.764;4.332;2024-01-30T04:39:28;11.70;99.90
25582;DHT22;13462;50.764;4.332;2024-01-30T04:41:54;11.80;99.90
25582;DHT22;13462;50.764;4.332;2024-01-30T04:44:19;11.90;99.90
25582;DHT22;13462;50.764;4.332;2024-01-30T04:46:45;11.80;99.90
25582;DHT22;13462;50.764;4.332;2024-01-30T04:49:11;11.80;99.90
25582;DHT22;13462;50.764;4.332;2024-01-30T04:51:36;11.90;99.90
25582;DHT22;13462;50.764;4.332;2024-01-30T04:54:02;11.80;99.90
25582;DHT22;13462;50.764;4.332;2024-01-30T04:56:27;11.80;99.90
25582;DHT22;13462;50.764;4.332;2024-01-30T04:58:53;11.70;99.90
25582;DHT22;13462;50.764;4.332;2024-01-30T05:01:18;11.80;99.90
25582;DHT22;13462;50.764;4.332;2024-01-30T05:03:44;11.70;99.90
25582;DHT22;13462;50.764;4.332;2024-01-30T05:06:10;11.80;99.90
25582;DHT22;13462;50.764;4.332;2024-01-30T05:08:35;11.70;99.90
25582;DHT22;13462;50.764;4.332;2024-01-30T05:11:07;11.70;99.90
25582;DHT22;13462;50.764;4.332;2024-01-30T05:13:32;11.70;99.90
25582;DHT22;13462;50.764;4.332;2024-01-30T05:15:58;11.70;99.90
25582;DHT22;13462;50.764;4.332;2024-01-30T05:18:23;11.70;99.90
25582;DHT22;13462;50.764;4.332;2024-01-30T05:20:50;11.70;99.90
25582;DHT22;13462;50.764;4.332;2024-01-30T05:23:16;11.60;99.90
25582;DHT22;13462;50.764;4.332;2024-01-30T05:25:41;11.70;99.90
25582;DHT22;13462;50.764;4.332;2024-01-30T05:28:07;11.60;99.90
25582;DHT22;13462;50.764;4.332;2024-01-30T05:30:33;11.60;99.90
25582;DHT22;13462;50.764;4.332;2024-01-30T05:32:58;11.50;99.90
25582;DHT22;13462;50.764;4.332;2024-01-30T05:35:24;11.50;99.90
25582;DHT22;13462;50.764;4.332;2024-01-30T05:37:49;11.50;99.90
25582;DHT22;13462;50.764;4.332;2024-01-30T05:40:15;11.50;99.90
25582;DHT22;13462;50.764;4.332;2024-01-30T05:42:41;11.60;99.90
25582;DHT22;13462;50.764;4.332;2024-01-30T05:45:07;11.60;99.90
25582;DHT22;13462;50.764;4.332;2024-01-30T05:47:34;11.60;99.90
25582;DHT22;13462;50.764;4.332;2024-01-30T05:49:59;11.70;99.90
25582;DHT22;13462;50.764;4.332;2024-01-30T05:52:25;11.50;99.90
25582;DHT22;13462;50.764;4.332;2024-01-30T05:54:51;11.50;99.90
25582;DHT22;13462;50.764;4.332;2024-01-30T05:57:16;11.50;99.90
25582;DHT22;13462;50.764;4.332;2024-01-30T05:59:43;11.60;99.90
25582;DHT22;13462;50.764;4.332;2024-01-30T06:02:10;11.60;99.90
25582;DHT22;13462;50.764;4.332;2024-01-30T06:04:36;11.50;99.90
25582;DHT22;13462;50.764;4.332;2024-01-30T06:07:02;11.40;99.90
25582;DHT22;13462;50.764;4.332;2024-01-30T06:09:28;11.40;99.90
25582;DHT22;13462;50.764;4.332;2024-01-30T06:11:54;11.40;99.90
25582;DHT22;13462;50.764;4.332;2024-01-30T06:14:20;11.30;99.90
25582;DHT22;13462;50.764;4.332;2024-01-30T06:16:46;11.40;99.90
25582;DHT22;13462;50.764;4.332;2024-01-30T06:19:11;11.30;99.90
25582;DHT22;13462;50.764;4.332;2024-01-30T06:21:37;11.40;99.90
25582;DHT22;13462;50.764;4.332;2024-01-30T06:24:04;11.40;99.90
25582;DHT22;13462;50.764;4.332;2024-01-30T06:26:29;11.30;99.90
25582;DHT22;13462;50.764;4.332;2024-01-30T06:28:55;11.20;99.90
25582;DHT22;13462;50.764;4.332;2024-01-30T06:31:20;11.20;99.90
25582;DHT22;13462;50.764;4.332;2024-01-30T06:33:49;11.20;99.90
25582;DHT22;13462;50.764;4.332;2024-01-30T06:36:15;11.10;99.90
25582;DHT22;13462;50.764;4.332;2024-01-30T06:38:41;11.10;99.90
25582;DHT22;13462;50.764;4.332;2024-01-30T06:41:07;11.10;99.90
25582;DHT22;13462;50.764;4.332;2024-01-30T06:43:32;11.20;99.90
25582;DHT22;13462;50.764;4.332;2024-01-30T06:45:58;11.20;99.90
25582;DHT22;13462;50.764;4.332;2024-01-30T06:48:24;11.10;99.90
25582;DHT22;13462;50.764;4.332;2024-01-30T06:50:52;11.10;99.90
25582;DHT22;13462;50.764;4.332;2024-01-30T06:53:19;11.20;99.90
25582;DHT22;13462;50.764;4.332;2024-01-30T06:55:44;11.20;99.90
25582;DHT22;13462;50.764;4.332;2024-01-30T06:58:10;11.20;99.90
25582;DHT22;13462;50.764;4.332;2024-01-30T07:00:36;11.30;99.90
25582;DHT22;13462;50.764;4.332;2024-01-30T07:03:02;11.20;99.90
25582;DHT22;13462;50.764;4.332;2024-01-30T07:05:27;11.10;99.90
25582;DHT22;13462;50.764;4.332;2024-01-30T07:07:53;11.10;99.90
25582;DHT22;13462;50.764;4.332;2024-01-30T07:10:18;11.10;99.90
25582;DHT22;13462;50.764;4.332;2024-01-30T07:12:44;11.00;99.90
25582;DHT22;13462;50.764;4.332;2024-01-30T07:15:10;10.90;99.90
25582;DHT22;13462;50.764;4.332;2024-01-30T07:17:35;10.90;99.90
25582;DHT22;13462;50.764;4.332;2024-01-30T07:20:01;11.00;99.90
25582;DHT22;13462;50.764;4.332;2024-01-30T07:22:29;11.10;99.90
25582;DHT22;13462;50.764;4.332;2024-01-30T07:24:55;11.20;99.90
25582;DHT22;13462;50.764;4.332;2024-01-30T07:27:21;11.30;99.90
25582;DHT22;13462;50.764;4.332;2024-01-30T07:29:47;11.30;99.90
25582;DHT22;13462;50.764;4.332;2024-01-30T07:32:12;11.40;99.90
25582;DHT22;13462;50.764;4.332;2024-01-30T07:34:38;11.50;99.90
25582;DHT22;13462;50.764;4.332;2024-01-30T07:37:03;11.50;99.90
25582;DHT22;13462;50.764;4.332;2024-01-30T07:39:29;11.60;99.90
25582;DHT22;13462;50.764;4.332;2024-01-30T07:41:55;11.50;99.90
25582;DHT22;13462;50.764;4.332;2024-01-30T07:44:20;11.50;99.90
25582;DHT22;13462;50.764;4.332;2024-01-30T07:46:46;11.60;99.90
25582;DHT22;13462;50.764;4.332;2024-01-30T07:49:12;11.60;99.90
25582;DHT22;13462;50.764;4.332;2024-01-30T07:51:39;11.60;99.90
25582;DHT22;13462;50.764;4.332;2024-01-30T07:54:14;11.60;99.90
25582;DHT22;13462;50.764;4.332;2024-01-30T07:56:39;11.60;99.90
25582;DHT22;13462;50.764;4.332;2024-01-30T07:59:05;11.70;99.90
25582;DHT22;13462;50.764;4.332;2024-01-30T08:01:30;11.70;99.90
25582;DHT22;13462;50.764;4.332;2024-01-30T08:03:56;11.70;99.90
25582;DHT22;13462;50.764;4.332;2024-01-30T08:06:22;11.70;99.90
25582;DHT22;13462;50.764;4.332;2024-01-30T08:08:47;11.60;99.90
25582;DHT22;13462;50.764;4.332;2024-01-30T08:11:13;11.60;99.90
25582;DHT22;13462;50.764;4.332;2024-01-30T08:13:39;11.60;99.90
25582;DHT22;13462;50.764;4.332;2024-01-30T08:16:05;11.60;99.90
25582;DHT22;13462;50.764;4.332;2024-01-30T08:18:31;11.70;99.90
25582;DHT22;13462;50.764;4.332;2024-01-30T08:20:57;11.60;99.90
25582;DHT22;13462;50.764;4.332;2024-01-30T08:23:23;11.70;99.90
25582;DHT22;13462;50.764;4.332;2024-01-30T08:25:48;11.70;99.90
25582;DHT22;13462;50.764;4.332;2024-01-30T08:28:14;11.70;99.90
25582;DHT22;13462;50.764;4.332;2024-01-30T08:30:40;11.70;99.90
25582;DHT22;13462;50.764;4.332;2024-01-30T08:33:05;11.90;99.90
25582;DHT22;13462;50.764;4.332;2024-01-30T08:35:31;11.80;99.90
25582;DHT22;13462;50.764;4.332;2024-01-30T08:37:59;11.80;99.90
25582;DHT22;13462;50.764;4.332;2024-01-30T08:40:24;11.80;99.90
25582;DHT22;13462;50.764;4.332;2024-01-30T08:42:50;11.80;99.90
25582;DHT22;13462;50.764;4.332;2024-01-30T08:45:16;11.70;99.90
25582;DHT22;13462;50.764;4.332;2024-01-30T08:47:42;11.70;99.90
25582;DHT22;13462;50.764;4.332;2024-01-30T08:50:07;11.80;99.90
25582;DHT22;13462;50.764;4.332;2024-01-30T08:52:33;11.80;99.90
25582;DHT22;13462;50.764;4.332;2024-01-30T08:55:00;11.90;99.90
25582;DHT22;13462;50.764;4.332;2024-01-30T08:57:25;11.70;99.90
25582;DHT22;13462;50.764;4.332;2024-01-30T08:59:54;11.70;99.90
25582;DHT22;13462;50.764;4.332;2024-01-30T09:02:20;11.70;99.90
25582;DHT22;13462;50.764;4.332;2024-01-30T09:04:46;11.70;99.90
25582;DHT22;13462;50.764;4.332;2024-01-30T09:07:12;11.70;99.90
25582;DHT22;13462;50.764;4.332;2024-01-30T09:09:39;11.70;99.90
25582;DHT22;13462;50.764;4.332;2024-01-30T09:12:07;11.70;99.90
25582;DHT22;13462;50.764;4.332;2024-01-30T09:14:35;11.60;99.90
25582;DHT22;13462;50.764;4.332;2024-01-30T09:17:01;11.60;99.90
25582;DHT22;13462;50.764;4.332;2024-01-30T09:19:28;11.70;99.90
25582;DHT22;13462;50.764;4.332;2024-01-30T09:21:54;11.70;99.90
25582;DHT22;13462;50.764;4.332;2024-01-30T09:24:19;11.80;99.90
25582;DHT22;13462;50.764;4.332;2024-01-30T09:26:45;11.70;99.90
25582;DHT22;13462;50.764;4.332;2024-01-30T09:29:11;11.70;99.90
25582;DHT22;13462;50.764;4.332;2024-01-30T09:31:36;11.80;99.90
25582;DHT22;13462;50.764;4.332;2024-01-30T09:34:02;11.70;99.90
25582;DHT22;13462;50.764;4.332;2024-01-30T09:36:27;11.70;99.90
25582;DHT22;13462;50.764;4.332;2024-01-30T09:38:53;11.70;99.90
25582;DHT22;13462;50.764;4.332;2024-01-30T09:41:19;11.70;99.90
25582;DHT22;13462;50.764;4.332;2024-01-30T09:43:48;11.80;99.90
25582;DHT22;13462;50.764;4.332;2024-01-30T09:46:17;11.80;99.90
25582;DHT22;13462;50.764;4.332;2024-01-30T09:48:46;11.80;99.90
25582;DHT22;13462;50.764;4.332;2024-01-30T09:51:14;11.80;99.90
25582;DHT22;13462;50.764;4.332;2024-01-30T09:53:41;11.80;99.90
25582;DHT22;13462;50.764;4.332;2024-01-30T09:56:07;11.70;99.90
25582;DHT22;13462;50.764;4.332;2024-01-30T09:58:33;11.60;99.90
25582;DHT22;13462;50.764;4.332;2024-01-30T10:00:58;11.50;99.90
25582;DHT22;13462;50.764;4.332;2024-01-30T10:03:24;11.50;99.90
25582;DHT22;13462;50.764;4.332;2024-01-30T10:05:51;11.70;99.90
25582;DHT22;13462;50.764;4.332;2024-01-30T10:08:20;11.70;99.90
25582;DHT22;13462;50.764;4.332;2024-01-30T10:10:47;11.60;99.90
25582;DHT22;13462;50.764;4.332;2024-01-30T10:13:12;11.50;99.90
25582;DHT22;13462;50.764;4.332;2024-01-30T10:15:38;11.50;99.90
25582;DHT22;13462;50.764;4.332;2024-01-30T10:18:05;11.50;99.90
25582;DHT22;13462;50.764;4.332;2024-01-30T10:20:34;11.60;99.90
25582;DHT22;13462;50.764;4.332;2024-01-30T10:22:59;11.50;99.90
25582;DHT22;13462;50.764;4.332;2024-01-30T10:25:25;11.40;99.90
25582;DHT22;13462;50.764;4.332;2024-01-30T10:27:54;11.50;99.90
25582;DHT22;13462;50.764;4.332;2024-01-30T10:30:21;11.50;99.90
25582;DHT22;13462;50.764;4.332;2024-01-30T10:32:47;11.40;99.90
25582;DHT22;13462;50.764;4.332;2024-01-30T10:35:13;11.50;99.90
25582;DHT22;13462;50.764;4.332;2024-01-30T10:37:39;11.50;99.90
25582;DHT22;13462;50.764;4.332;2024-01-30T10:40:04;11.50;99.90
25582;DHT22;13462;50.764;4.332;2024-01-30T10:42:32;11.40;99.90
25582;DHT22;13462;50.764;4.332;2024-01-30T10:45:08;11.60;99.90
25582;DHT22;13462;50.764;4.332;2024-01-30T10:47:35;11.80;99.90
25582;DHT22;13462;50.764;4.332;2024-01-30T10:50:04;12.00;99.90
25582;DHT22;13462;50.764;4.332;2024-01-30T10:52:31;12.00;99.90
25582;DHT22;13462;50.764;4.332;2024-01-30T10:54:58;12.00;99.90
25582;DHT22;13462;50.764;4.332;2024-01-30T10:57:25;12.10;99.90
25582;DHT22;13462;50.764;4.332;2024-01-30T11:00:01;11.90;99.90
25582;DHT22;13462;50.764;4.332;2024-01-30T11:02:30;11.90;99.90
25582;DHT22;13462;50.764;4.332;2024-01-30T11:04:58;11.80;99.90
25582;DHT22;13462;50.764;4.332;2024-01-30T11:07:26;11.70;99.90
25582;DHT22;13462;50.764;4.332;2024-01-30T11:09:53;11.60;99.90
25582;DHT22;13462;50.764;4.332;2024-01-30T11:12:24;11.40;99.90
25582;DHT22;13462;50.764;4.332;2024-01-30T11:17:52;11.40;99.90
25582;DHT22;13462;50.764;4.332;2024-01-30T11:20:25;11.40;99.90
25582;DHT22;13462;50.764;4.332;2024-01-30T11:22:53;11.30;99.90
25582;DHT22;13462;50.764;4.332;2024-01-30T11:25:22;11.20;99.90
25582;DHT22;13462;50.764;4.332;2024-01-30T11:27:56;11.10;99.90
25582;DHT22;13462;50.764;4.332;2024-01-30T11:30:25;11.20;99.90
25582;DHT22;13462;50.764;4.332;2024-01-30T11:33:04;11.20;99.90
25582;DHT22;13462;50.764;4.332;2024-01-30T11:35:43;11.20;99.90
25582;DHT22;13462;50.764;4.332;2024-01-30T11:38:11;11.20;99.90
25582;DHT22;13462;50.764;4.332;2024-01-30T11:40:39;11.30;99.90
25582;DHT22;13462;50.764;4.332;2024-01-30T11:43:06;11.30;99.90
25582;DHT22;13462;50.764;4.332;2024-01-30T11:45:32;11.20;99.90
25582;DHT22;13462;50.764;4.332;2024-01-30T11:47:59;11.30;99.90
25582;DHT22;13462;50.764;4.332;2024-01-30T11:50:35;11.30;99.90
25582;DHT22;13462;50.764;4.332;2024-01-30T11:53:04;11.30;99.90
25582;DHT22;13462;50.764;4.332;2024-01-30T11:55:30;11.40;99.90
25582;DHT22;13462;50.764;4.332;2024-01-30T11:57:57;11.50;99.90
25582;DHT22;13462;50.764;4.332;2024-01-30T12:00:23;11.60;99.90
25582;DHT22;13462;50.764;4.332;2024-01-30T12:02:53;11.70;99.90
25582;DHT22;13462;50.764;4.332;2024-01-30T12:05:28;11.90;99.90
25582;DHT22;13462;50.764;4.332;2024-01-30T12:07:54;12.30;99.90
25582;DHT22;13462;50.764;4.332;2024-01-30T12:10:21;12.30;99.90
25582;DHT22;13462;50.764;4.332;2024-01-30T12:12:49;12.20;99.90
25582;DHT22;13462;50.764;4.332;2024-01-30T12:15:16;12.10;99.90
25582;DHT22;13462;50.764;4.332;2024-01-30T12:17:41;12.10;99.90
25582;DHT22;13462;50.764;4.332;2024-01-30T12:20:12;12.10;99.90
25582;DHT22;13462;50.764;4.332;2024-01-30T12:22:46;12.00;99.90
25582;DHT22;13462;50.764;4.332;2024-01-30T12:25:14;11.70;99.90
25582;DHT22;13462;50.764;4.332;2024-01-30T12:27:42;11.50;99.90
25582;DHT22;13462;50.764;4.332;2024-01-30T12:30:12;11.60;99.90
25582;DHT22;13462;50.764;4.332;2024-01-30T12:32:40;11.80;99.90
25582;DHT22;13462;50.764;4.332;2024-01-30T12:35:19;11.70;99.90
25582;DHT22;13462;50.764;4.332;2024-01-30T12:37:46;11.80;99.90
25582;DHT22;13462;50.764;4.332;2024-01-30T12:40:13;11.90;99.90
25582;DHT22;13462;50.764;4.332;2024-01-30T12:42:40;12.40;99.90
25582;DHT22;13462;50.764;4.332;2024-01-30T12:45:08;13.70;99.90
25582;DHT22;13462;50.764;4.332;2024-01-30T12:47:34;14.50;99.90
25582;DHT22;13462;50.764;4.332;2024-01-30T12:50:00;15.40;99.90
25582;DHT22;13462;50.764;4.332;2024-01-30T12:52:25;16.40;99.90
25582;DHT22;13462;50.764;4.332;2024-01-30T12:54:52;17.70;99.90
25582;DHT22;13462;50.764;4.332;2024-01-30T12:57:18;17.70;99.90
25582;DHT22;13462;50.764;4.332;2024-01-30T12:59:45;16.50;99.90
25582;DHT22;13462;50.764;4.332;2024-01-30T13:02:12;15.70;99.90
25582;DHT22;13462;50.764;4.332;2024-01-30T13:04:38;15.00;99.90
25582;DHT22;13462;50.764;4.332;2024-01-30T13:07:04;14.20;99.90
25582;DHT22;13462;50.764;4.332;2024-01-30T13:09:30;13.60;99.90
25582;DHT22;13462;50.764;4.332;2024-01-30T13:11:57;13.40;99.90
25582;DHT22;13462;50.764;4.332;2024-01-30T13:14:23;13.00;99.90
25582;DHT22;13462;50.764;4.332;2024-01-30T13:16:49;12.70;99.90
25582;DHT22;13462;50.764;4.332;2024-01-30T13:19:14;12.50;99.90
25582;DHT22;13462;50.764;4.332;2024-01-30T13:21:40;12.40;99.90
25582;DHT22;13462;50.764;4.332;2024-01-30T13:24:06;12.20;99.90
25582;DHT22;13462;50.764;4.332;2024-01-30T13:26:32;12.20;99.90
25582;DHT22;13462;50.764;4.332;2024-01-30T13:28:59;12.10;99.90
25582;DHT22;13462;50.764;4.332;2024-01-30T13:31:25;12.00;99.90
25582;DHT22;13462;50.764;4.332;2024-01-30T13:33:50;12.10;99.90
25582;DHT22;13462;50.764;4.332;2024-01-30T13:36:16;11.90;99.90
25582;DHT22;13462;50.764;4.332;2024-01-30T13:38:42;12.10;99.90
25582;DHT22;13462;50.764;4.332;2024-01-30T13:41:07;12.40;99.90
25582;DHT22;13462;50.764;4.332;2024-01-30T13:43:33;12.40;99.90
25582;DHT22;13462;50.764;4.332;2024-01-30T13:45:59;12.40;99.90
25582;DHT22;13462;50.764;4.332;2024-01-30T13:48:25;12.30;99.90
25582;DHT22;13462;50.764;4.332;2024-01-30T13:50:50;12.10;99.90
25582;DHT22;13462;50.764;4.332;2024-01-30T13:53:16;12.00;99.90
25582;DHT22;13462;50.764;4.332;2024-01-30T13:55:42;12.00;99.90
25582;DHT22;13462;50.764;4.332;2024-01-30T13:58:08;11.90;99.90
25582;DHT22;13462;50.764;4.332;2024-01-30T14:00:33;11.80;99.90
25582;DHT22;13462;50.764;4.332;2024-01-30T14:02:59;11.80;99.90
25582;DHT22;13462;50.764;4.332;2024-01-30T14:05:26;12.00;99.90
25582;DHT22;13462;50.764;4.332;2024-01-30T14:07:53;12.30;99.90
25582;DHT22;13462;50.764;4.332;2024-01-30T14:10:19;12.40;99.90
25582;DHT22;13462;50.764;4.332;2024-01-30T14:12:45;12.40;99.90
25582;DHT22;13462;50.764;4.332;2024-01-30T14:15:14;12.40;99.90
25582;DHT22;13462;50.764;4.332;2024-01-30T14:17:48;12.10;99.90
25582;DHT22;13462;50.764;4.332;2024-01-30T14:20:15;12.30;99.90
25582;DHT22;13462;50.764;4.332;2024-01-30T14:22:44;12.70;99.90
25582;DHT22;13462;50.764;4.332;2024-01-30T14:25:10;12.50;99.90
25582;DHT22;13462;50.764;4.332;2024-01-30T14:27:36;12.50;99.90
25582;DHT22;13462;50.764;4.332;2024-01-30T14:30:02;12.50;99.90
25582;DHT22;13462;50.764;4.332;2024-01-30T14:32:28;11.90;99.90
25582;DHT22;13462;50.764;4.332;2024-01-30T14:34:54;11.80;99.90
25582;DHT22;13462;50.764;4.332;2024-01-30T14:37:20;11.70;99.90
25582;DHT22;13462;50.764;4.332;2024-01-30T14:39:47;11.50;99.90
25582;DHT22;13462;50.764;4.332;2024-01-30T14:42:13;11.50;99.90
25582;DHT22;13462;50.764;4.332;2024-01-30T14:44:39;11.40;99.90
25582;DHT22;13462;50.764;4.332;2024-01-30T14:47:05;11.40;99.90
25582;DHT22;13462;50.764;4.332;2024-01-30T14:49:31;11.20;99.90
25582;DHT22;13462;50.764;4.332;2024-01-30T14:51:57;11.10;99.90
25582;DHT22;13462;50.764;4.332;2024-01-30T14:54:24;11.00;99.90
25582;DHT22;13462;50.764;4.332;2024-01-30T14:56:50;10.90;99.90
25582;DHT22;13462;50.764;4.332;2024-01-30T14:59:15;10.90;99.90
25582;DHT22;13462;50.764;4.332;2024-01-30T15:01:41;10.90;99.90
25582;DHT22;13462;50.764;4.332;2024-01-30T15:04:07;10.70;99.90
25582;DHT22;13462;50.764;4.332;2024-01-30T15:06:33;10.60;99.90
25582;DHT22;13462;50.764;4.332;2024-01-30T15:08:58;10.60;99.90
25582;DHT22;13462;50.764;4.332;2024-01-30T15:11:24;10.60;99.90
25582;DHT22;13462;50.764;4.332;2024-01-30T15:13:50;10.50;99.90
25582;DHT22;13462;50.764;4.332;2024-01-30T15:16:15;10.40;99.90
25582;DHT22;13462;50.764;4.332;2024-01-30T15:18:41;10.40;99.90
25582;DHT22;13462;50.764;4.332;2024-01-30T15:21:07;10.40;99.90
25582;DHT22;13462;50.764;4.332;2024-01-30T15:23:32;10.40;99.90
25582;DHT22;13462;50.764;4.332;2024-01-30T15:25:58;10.50;99.90
25582;DHT22;13462;50.764;4.332;2024-01-30T15:28:34;10.40;99.90